sensor_id;sensor_type;location;lat;lon;timestamp;P1;durP1;ratioP1;P2;durP2;ratioP2
9481;SDS011;4779;48.062;11.672;2023-04-10T00:01:55;10.57;;;9.43;;
9481;SDS011;4779;48.062;11.672;2023-04-10T00:04:22;11.03;;;9.90;;
9481;SDS011;4779;48.062;11.672;2023-04-10T00:06:50;12.57;;;10.13;;
9481;SDS011;4779;48.062;11.672;2023-04-10T00:09:17;11.27;;;9.33;;
9481;SDS011;4779;48.062;11.672;2023-04-10T00:11:44;10.77;;;9.67;;
9481;SDS011;4779;48.062;11.672;2023-04-10T00:14:11;10.27;;;9.07;;
9481;SDS011;4779;48.062;11.672;2023-04-10T00:16:37;9.73;;;8.47;;
9481;SDS011;4779;48.062;11.672;2023-04-10T00:19:04;9.67;;;8.67;;
9481;SDS011;4779;48.062;11.672;2023-04-10T00:21:32;10.17;;;8.87;;
9481;SDS011;4779;48.062;11.672;2023-04-10T00:24:00;8.93;;;8.03;;
9481;SDS011;4779;48.062;11.672;2023-04-10T00:26:27;9.57;;;8.57;;
9481;SDS011;4779;48.062;11.672;2023-04-10T00:28:54;9.93;;;8.60;;
9481;SDS011;4779;48.062;11.672;2023-04-10T00:31:20;8.57;;;7.67;;
9481;SDS011;4779;48.062;11.672;2023-04-10T00:33:47;8.80;;;7.80;;
9481;SDS011;4779;48.062;11.672;2023-04-10T00:36:14;9.37;;;8.40;;
9481;SDS011;4779;48.062;11.672;2023-04-10T00:38:41;9.10;;;8.03;;
9481;SDS011;4779;48.062;11.672;2023-04-10T00:41:09;8.97;;;8.07;;
9481;SDS011;4779;48.062;11.672;2023-04-10T00:43:36;8.53;;;7.70;;
9481;SDS011;4779;48.062;11.672;2023-04-10T00:46:03;10.57;;;8.10;;
9481;SDS011;4779;48.062;11.672;2023-04-10T00:48:31;8.83;;;7.70;;
9481;SDS011;4779;48.062;11.672;2023-04-10T00:50:58;9.23;;;8.33;;
9481;SDS011;4779;48.062;11.672;2023-04-10T00:53:25;9.03;;;8.13;;
9481;SDS011;4779;48.062;11.672;2023-04-10T00:55:53;8.87;;;7.50;;
9481;SDS011;4779;48.062;11.672;2023-04-10T00:58:22;8.50;;;7.70;;
9481;SDS011;4779;48.062;11.672;2023-04-10T01:00:50;8.40;;;7.50;;
9481;SDS011;4779;48.062;11.672;2023-04-10T01:03:18;9.30;;;7.20;;
9481;SDS011;4779;48.062;11.672;2023-04-10T01:05:48;8.73;;;7.83;;
9481;SDS011;4779;48.062;11.672;2023-04-10T01:08:22;8.67;;;7.70;;
9481;SDS011;4779;48.062;11.672;2023-04-10T01:10:58;8.63;;;7.80;;
9481;SDS011;4779;48.062;11.672;2023-04-10T01:13:34;8.47;;;7.67;;
9481;SDS011;4779;48.062;11.672;2023-04-10T01:16:08;8.70;;;7.80;;
9481;SDS011;4779;48.062;11.672;2023-04-10T01:18:42;8.60;;;7.70;;
9481;SDS011;4779;48.062;11.672;2023-04-10T01:21:14;8.70;;;7.80;;
9481;SDS011;4779;48.062;11.672;2023-04-10T01:23:51;9.10;;;7.50;;
9481;SDS011;4779;48.062;11.672;2023-04-10T01:26:31;9.00;;;7.63;;
9481;SDS011;4779;48.062;11.672;2023-04-10T01:29:08;8.80;;;7.40;;
9481;SDS011;4779;48.062;11.672;2023-04-10T02:05:13;8.37;;;7.10;;
9481;SDS011;4779;48.062;11.672;2023-04-10T02:07:43;7.43;;;6.63;;
9481;SDS011;4779;48.062;11.672;2023-04-10T02:10:16;8.00;;;7.20;;
9481;SDS011;4779;48.062;11.672;2023-04-10T02:12:47;7.60;;;6.90;;
9481;SDS011;4779;48.062;11.672;2023-04-10T02:15:18;8.13;;;7.13;;
9481;SDS011;4779;48.062;11.672;2023-04-10T02:17:46;8.83;;;7.93;;
9481;SDS011;4779;48.062;11.672;2023-04-10T02:20:15;9.30;;;7.30;;
9481;SDS011;4779;48.062;11.672;2023-04-10T02:22:43;8.23;;;7.23;;
9481;SDS011;4779;48.062;11.672;2023-04-10T02:25:10;8.53;;;7.60;;
9481;SDS011;4779;48.062;11.672;2023-04-10T02:27:38;8.63;;;7.73;;
9481;SDS011;4779;48.062;11.672;2023-04-10T02:30:05;7.70;;;6.90;;
9481;SDS011;4779;48.062;11.672;2023-04-10T02:32:33;7.93;;;7.13;;
9481;SDS011;4779;48.062;11.672;2023-04-10T02:35:00;7.97;;;7.17;;
9481;SDS011;4779;48.062;11.672;2023-04-10T02:37:29;8.97;;;7.03;;
9481;SDS011;4779;48.062;11.672;2023-04-10T02:39:57;8.27;;;7.43;;
9481;SDS011;4779;48.062;11.672;2023-04-10T02:42:24;8.13;;;7.33;;
9481;SDS011;4779;48.062;11.672;2023-04-10T02:44:51;8.37;;;7.20;;
9481;SDS011;4779;48.062;11.672;2023-04-10T02:47:18;7.80;;;6.83;;
9481;SDS011;4779;48.062;11.672;2023-04-10T02:49:45;8.57;;;7.17;;
9481;SDS011;4779;48.062;11.672;2023-04-10T02:52:12;7.37;;;6.53;;
9481;SDS011;4779;48.062;11.672;2023-04-10T02:54:40;8.40;;;7.47;;
9481;SDS011;4779;48.062;11.672;2023-04-10T02:57:07;8.07;;;7.23;;
9481;SDS011;4779;48.062;11.672;2023-04-10T02:59:34;8.17;;;7.33;;
9481;SDS011;4779;48.062;11.672;2023-04-10T03:02:01;8.63;;;7.50;;
9481;SDS011;4779;48.062;11.672;2023-04-10T03:04:30;8.17;;;6.93;;
9481;SDS011;4779;48.062;11.672;2023-04-10T03:06:57;7.73;;;6.93;;
9481;SDS011;4779;48.062;11.672;2023-04-10T03:09:24;7.10;;;6.40;;
9481;SDS011;4779;48.062;11.672;2023-04-10T03:11:52;7.93;;;6.87;;
9481;SDS011;4779;48.062;11.672;2023-04-10T03:14:19;8.40;;;7.60;;
9481;SDS011;4779;48.062;11.672;2023-04-10T03:16:46;8.67;;;7.77;;
9481;SDS011;4779;48.062;11.672;2023-04-10T03:19:14;8.30;;;7.50;;
9481;SDS011;4779;48.062;11.672;2023-04-10T03:21:41;9.57;;;7.57;;
9481;SDS011;4779;48.062;11.672;2023-04-10T03:24:08;8.60;;;7.70;;
9481;SDS011;4779;48.062;11.672;2023-04-10T03:26:35;9.60;;;8.53;;
9481;SDS011;4779;48.062;11.672;2023-04-10T03:29:03;11.20;;;8.73;;
9481;SDS011;4779;48.062;11.672;2023-04-10T03:31:30;10.57;;;9.43;;
9481;SDS011;4779;48.062;11.672;2023-04-10T03:33:57;9.50;;;8.53;;
9481;SDS011;4779;48.062;11.672;2023-04-10T03:36:24;9.63;;;8.63;;
9481;SDS011;4779;48.062;11.672;2023-04-10T03:38:51;9.10;;;7.30;;
9481;SDS011;4779;48.062;11.672;2023-04-10T03:41:18;9.53;;;8.33;;
9481;SDS011;4779;48.062;11.672;2023-04-10T03:43:45;10.90;;;8.73;;
9481;SDS011;4779;48.062;11.672;2023-04-10T03:46:13;8.87;;;7.97;;
9481;SDS011;4779;48.062;11.672;2023-04-10T03:48:40;8.23;;;7.43;;
9481;SDS011;4779;48.062;11.672;2023-04-10T03:51:07;8.40;;;7.50;;
9481;SDS011;4779;48.062;11.672;2023-04-10T03:53:34;8.30;;;7.50;;
9481;SDS011;4779;48.062;11.672;2023-04-10T03:56:01;8.03;;;7.20;;
9481;SDS011;4779;48.062;11.672;2023-04-10T03:58:28;7.97;;;7.13;;
9481;SDS011;4779;48.062;11.672;2023-04-10T04:00:55;8.87;;;7.60;;
9481;SDS011;4779;48.062;11.672;2023-04-10T04:03:24;8.97;;;6.83;;
9481;SDS011;4779;48.062;11.672;2023-04-10T04:05:50;8.60;;;7.27;;
9481;SDS011;4779;48.062;11.672;2023-04-10T04:08:17;8.43;;;7.10;;
9481;SDS011;4779;48.062;11.672;2023-04-10T04:10:44;7.87;;;6.93;;
9481;SDS011;4779;48.062;11.672;2023-04-10T04:13:11;8.53;;;7.50;;
9481;SDS011;4779;48.062;11.672;2023-04-10T04:15:38;8.73;;;7.70;;
9481;SDS011;4779;48.062;11.672;2023-04-10T04:18:06;8.73;;;7.57;;
9481;SDS011;4779;48.062;11.672;2023-04-10T04:20:35;9.37;;;7.70;;
9481;SDS011;4779;48.062;11.672;2023-04-10T04:23:02;9.73;;;8.27;;
9481;SDS011;4779;48.062;11.672;2023-04-10T04:25:29;9.83;;;8.80;;
9481;SDS011;4779;48.062;11.672;2023-04-10T04:27:56;9.20;;;8.17;;
9481;SDS011;4779;48.062;11.672;2023-04-10T04:30:23;9.30;;;7.70;;
9481;SDS011;4779;48.062;11.672;2023-04-10T04:32:50;8.63;;;7.43;;
9481;SDS011;4779;48.062;11.672;2023-04-10T04:35:17;9.73;;;8.73;;
9481;SDS011;4779;48.062;11.672;2023-04-10T04:37:45;8.83;;;7.87;;
9481;SDS011;4779;48.062;11.672;2023-04-10T04:40:12;11.10;;;9.47;;
9481;SDS011;4779;48.062;11.672;2023-04-10T04:42:39;9.93;;;8.70;;
9481;SDS011;4779;48.062;11.672;2023-04-10T04:45:06;11.07;;;9.30;;
9481;SDS011;4779;48.062;11.672;2023-04-10T04:47:34;10.33;;;9.20;;
9481;SDS011;4779;48.062;11.672;2023-04-10T04:50:01;10.07;;;8.87;;
9481;SDS011;4779;48.062;11.672;2023-04-10T04:52:28;10.33;;;8.90;;
9481;SDS011;4779;48.062;11.672;2023-04-10T04:54:57;9.27;;;8.37;;
9481;SDS011;4779;48.062;11.672;2023-04-10T04:57:24;10.57;;;9.47;;
9481;SDS011;4779;48.062;11.672;2023-04-10T04:59:51;10.90;;;9.27;;
9481;SDS011;4779;48.062;11.672;2023-04-10T05:02:18;9.63;;;8.40;;
9481;SDS011;4779;48.062;11.672;2023-04-10T05:04:46;9.93;;;8.83;;
9481;SDS011;4779;48.062;11.672;2023-04-10T05:07:13;11.67;;;8.57;;
9481;SDS011;4779;48.062;11.672;2023-04-10T05:09:40;9.93;;;8.60;;
9481;SDS011;4779;48.062;11.672;2023-04-10T05:12:08;10.97;;;8.73;;
9481;SDS011;4779;48.062;11.672;2023-04-10T05:14:35;10.40;;;8.73;;
9481;SDS011;4779;48.062;11.672;2023-04-10T05:17:02;9.77;;;8.77;;
9481;SDS011;4779;48.062;11.672;2023-04-10T05:19:29;10.43;;;8.67;;
9481;SDS011;4779;48.062;11.672;2023-04-10T05:21:56;9.53;;;8.37;;
9481;SDS011;4779;48.062;11.672;2023-04-10T05:24:23;9.30;;;8.07;;
9481;SDS011;4779;48.062;11.672;2023-04-10T05:26:50;10.07;;;8.47;;
9481;SDS011;4779;48.062;11.672;2023-04-10T05:29:18;10.00;;;8.77;;
9481;SDS011;4779;48.062;11.672;2023-04-10T05:31:45;9.67;;;8.67;;
9481;SDS011;4779;48.062;11.672;2023-04-10T05:34:12;9.40;;;8.27;;
9481;SDS011;4779;48.062;11.672;2023-04-10T05:36:39;10.63;;;9.10;;
9481;SDS011;4779;48.062;11.672;2023-04-10T05:39:05;8.83;;;7.77;;
9481;SDS011;4779;48.062;11.672;2023-04-10T05:41:32;10.67;;;8.13;;
9481;SDS011;4779;48.062;11.672;2023-04-10T05:43:59;9.67;;;8.60;;
9481;SDS011;4779;48.062;11.672;2023-04-10T05:46:27;10.23;;;8.73;;
9481;SDS011;4779;48.062;11.672;2023-04-10T05:48:54;10.40;;;9.23;;
9481;SDS011;4779;48.062;11.672;2023-04-10T05:51:21;10.57;;;9.20;;
9481;SDS011;4779;48.062;11.672;2023-04-10T05:53:49;9.97;;;8.73;;
9481;SDS011;4779;48.062;11.672;2023-04-10T05:56:16;9.83;;;8.83;;
9481;SDS011;4779;48.062;11.672;2023-04-10T05:58:42;10.20;;;9.10;;
9481;SDS011;4779;48.062;11.672;2023-04-10T06:01:10;9.13;;;8.10;;
9481;SDS011;4779;48.062;11.672;2023-04-10T06:03:38;10.57;;;8.47;;
9481;SDS011;4779;48.062;11.672;2023-04-10T06:06:06;11.57;;;9.60;;
9481;SDS011;4779;48.062;11.672;2023-04-10T06:08:33;12.23;;;9.90;;
9481;SDS011;4779;48.062;11.672;2023-04-10T06:11:00;10.67;;;9.53;;
9481;SDS011;4779;48.062;11.672;2023-04-10T06:13:27;10.00;;;8.90;;
9481;SDS011;4779;48.062;11.672;2023-04-10T06:15:54;10.17;;;9.10;;
9481;SDS011;4779;48.062;11.672;2023-04-10T06:18:21;10.97;;;9.73;;
9481;SDS011;4779;48.062;11.672;2023-04-10T06:20:49;9.87;;;8.30;;
9481;SDS011;4779;48.062;11.672;2023-04-10T06:23:16;10.73;;;8.67;;
9481;SDS011;4779;48.062;11.672;2023-04-10T06:25:43;9.33;;;8.43;;
9481;SDS011;4779;48.062;11.672;2023-04-10T06:28:10;10.20;;;9.10;;
9481;SDS011;4779;48.062;11.672;2023-04-10T06:30:37;10.00;;;8.83;;
9481;SDS011;4779;48.062;11.672;2023-04-10T06:33:04;9.40;;;8.40;;
9481;SDS011;4779;48.062;11.672;2023-04-10T06:35:31;9.90;;;8.90;;
9481;SDS011;4779;48.062;11.672;2023-04-10T06:37:59;10.23;;;9.00;;
9481;SDS011;4779;48.062;11.672;2023-04-10T06:40:28;9.60;;;8.40;;
9481;SDS011;4779;48.062;11.672;2023-04-10T06:42:58;9.93;;;8.90;;
9481;SDS011;4779;48.062;11.672;2023-04-10T06:45:24;9.37;;;8.37;;
9481;SDS011;4779;48.062;11.672;2023-04-10T06:47:52;9.90;;;8.17;;
9481;SDS011;4779;48.062;11.672;2023-04-10T06:50:19;10.00;;;9.00;;
9481;SDS011;4779;48.062;11.672;2023-04-10T06:52:46;8.47;;;7.60;;
9481;SDS011;4779;48.062;11.672;2023-04-10T06:55:14;9.63;;;8.63;;
9481;SDS011;4779;48.062;11.672;2023-04-10T06:57:41;8.97;;;8.03;;
9481;SDS011;4779;48.062;11.672;2023-04-10T07:00:09;9.33;;;8.43;;
9481;SDS011;4779;48.062;11.672;2023-04-10T07:02:37;9.30;;;8.30;;
9481;SDS011;4779;48.062;11.672;2023-04-10T07:05:04;9.33;;;8.33;;
9481;SDS011;4779;48.062;11.672;2023-04-10T07:07:31;8.70;;;7.77;;
9481;SDS011;4779;48.062;11.672;2023-04-10T07:09:58;9.40;;;7.90;;
9481;SDS011;4779;48.062;11.672;2023-04-10T07:12:26;8.20;;;7.33;;
9481;SDS011;4779;48.062;11.672;2023-04-10T07:14:54;7.83;;;7.03;;
9481;SDS011;4779;48.062;11.672;2023-04-10T07:17:20;7.20;;;6.47;;
9481;SDS011;4779;48.062;11.672;2023-04-10T07:19:47;8.13;;;7.10;;
9481;SDS011;4779;48.062;11.672;2023-04-10T07:22:14;7.47;;;6.77;;
9481;SDS011;4779;48.062;11.672;2023-04-10T07:24:41;7.37;;;6.57;;
9481;SDS011;4779;48.062;11.672;2023-04-10T07:27:09;7.50;;;6.70;;
9481;SDS011;4779;48.062;11.672;2023-04-10T07:29:38;6.77;;;6.07;;
9481;SDS011;4779;48.062;11.672;2023-04-10T07:32:05;7.20;;;6.20;;
9481;SDS011;4779;48.062;11.672;2023-04-10T07:34:32;6.73;;;6.03;;
9481;SDS011;4779;48.062;11.672;2023-04-10T07:36:59;6.57;;;5.87;;
9481;SDS011;4779;48.062;11.672;2023-04-10T07:39:26;6.83;;;6.13;;
9481;SDS011;4779;48.062;11.672;2023-04-10T07:41:52;6.67;;;5.93;;
9481;SDS011;4779;48.062;11.672;2023-04-10T07:44:19;7.07;;;6.37;;
9481;SDS011;4779;48.062;11.672;2023-04-10T07:46:48;7.40;;;6.60;;
9481;SDS011;4779;48.062;11.672;2023-04-10T07:49:16;7.03;;;6.33;;
9481;SDS011;4779;48.062;11.672;2023-04-10T07:51:43;7.30;;;6.60;;
9481;SDS011;4779;48.062;11.672;2023-04-10T07:54:10;7.07;;;6.20;;
9481;SDS011;4779;48.062;11.672;2023-04-10T07:56:37;7.00;;;6.30;;
9481;SDS011;4779;48.062;11.672;2023-04-10T07:59:04;7.17;;;5.83;;
9481;SDS011;4779;48.062;11.672;2023-04-10T08:01:31;6.87;;;6.17;;
9481;SDS011;4779;48.062;11.672;2023-04-10T08:03:59;6.87;;;6.10;;
9481;SDS011;4779;48.062;11.672;2023-04-10T08:06:27;7.27;;;6.57;;
9481;SDS011;4779;48.062;11.672;2023-04-10T08:08:53;6.77;;;6.07;;
9481;SDS011;4779;48.062;11.672;2023-04-10T08:11:21;7.23;;;6.53;;
9481;SDS011;4779;48.062;11.672;2023-04-10T08:13:49;6.63;;;6.00;;
9481;SDS011;4779;48.062;11.672;2023-04-10T08:16:17;6.77;;;6.07;;
9481;SDS011;4779;48.062;11.672;2023-04-10T08:18:46;6.43;;;5.80;;
9481;SDS011;4779;48.062;11.672;2023-04-10T08:21:14;7.10;;;6.40;;
9481;SDS011;4779;48.062;11.672;2023-04-10T08:23:41;7.10;;;6.40;;
9481;SDS011;4779;48.062;11.672;2023-04-10T08:26:10;6.23;;;5.63;;
9481;SDS011;4779;48.062;11.672;2023-04-10T08:28:37;7.97;;;6.47;;
9481;SDS011;4779;48.062;11.672;2023-04-10T08:31:04;6.93;;;5.97;;
9481;SDS011;4779;48.062;11.672;2023-04-10T08:33:31;6.80;;;6.10;;
9481;SDS011;4779;48.062;11.672;2023-04-10T08:35:58;6.23;;;5.63;;
9481;SDS011;4779;48.062;11.672;2023-04-10T08:38:26;6.20;;;5.60;;
9481;SDS011;4779;48.062;11.672;2023-04-10T08:40:53;6.70;;;6.00;;
9481;SDS011;4779;48.062;11.672;2023-04-10T08:43:20;6.30;;;5.60;;
9481;SDS011;4779;48.062;11.672;2023-04-10T08:45:47;5.97;;;5.37;;
9481;SDS011;4779;48.062;11.672;2023-04-10T08:48:15;6.87;;;6.17;;
9481;SDS011;4779;48.062;11.672;2023-04-10T08:50:44;6.20;;;5.60;;
9481;SDS011;4779;48.062;11.672;2023-04-10T08:53:12;6.37;;;5.77;;
9481;SDS011;4779;48.062;11.672;2023-04-10T08:55:42;6.20;;;5.70;;
9481;SDS011;4779;48.062;11.672;2023-04-10T08:58:11;6.27;;;5.67;;
9481;SDS011;4779;48.062;11.672;2023-04-10T09:00:38;5.50;;;5.00;;
9481;SDS011;4779;48.062;11.672;2023-04-10T09:03:07;6.13;;;5.30;;
9481;SDS011;4779;48.062;11.672;2023-04-10T09:05:35;6.23;;;5.13;;
9481;SDS011;4779;48.062;11.672;2023-04-10T09:08:03;5.90;;;5.40;;
9481;SDS011;4779;48.062;11.672;2023-04-10T09:10:30;5.43;;;4.93;;
9481;SDS011;4779;48.062;11.672;2023-04-10T09:12:58;5.57;;;5.07;;
9481;SDS011;4779;48.062;11.672;2023-04-10T09:15:25;6.20;;;5.60;;
9481;SDS011;4779;48.062;11.672;2023-04-10T09:17:56;5.77;;;5.27;;
9481;SDS011;4779;48.062;11.672;2023-04-10T09:20:24;4.80;;;4.40;;
9481;SDS011;4779;48.062;11.672;2023-04-10T09:22:52;4.93;;;4.53;;
9481;SDS011;4779;48.062;11.672;2023-04-10T09:25:29;5.30;;;4.80;;
9481;SDS011;4779;48.062;11.672;2023-04-10T09:28:02;5.67;;;5.17;;
9481;SDS011;4779;48.062;11.672;2023-04-10T09:30:34;5.80;;;5.30;;
9481;SDS011;4779;48.062;11.672;2023-04-10T09:33:11;5.10;;;4.60;;
9481;SDS011;4779;48.062;11.672;2023-04-10T09:35:47;5.33;;;4.83;;
9481;SDS011;4779;48.062;11.672;2023-04-10T09:38:14;5.70;;;4.80;;
9481;SDS011;4779;48.062;11.672;2023-04-10T09:40:42;5.47;;;4.97;;
9481;SDS011;4779;48.062;11.672;2023-04-10T09:43:18;5.43;;;4.93;;
9481;SDS011;4779;48.062;11.672;2023-04-10T09:45:46;5.47;;;4.97;;
9481;SDS011;4779;48.062;11.672;2023-04-10T09:48:13;5.03;;;4.30;;
9481;SDS011;4779;48.062;11.672;2023-04-10T09:50:41;4.67;;;4.13;;
9481;SDS011;4779;48.062;11.672;2023-04-10T09:53:08;4.73;;;4.33;;
9481;SDS011;4779;48.062;11.672;2023-04-10T09:55:35;4.87;;;4.37;;
9481;SDS011;4779;48.062;11.672;2023-04-10T09:58:02;5.07;;;4.30;;
9481;SDS011;4779;48.062;11.672;2023-04-10T10:00:32;4.93;;;4.50;;
9481;SDS011;4779;48.062;11.672;2023-04-10T10:03:06;5.77;;;4.70;;
9481;SDS011;4779;48.062;11.672;2023-04-10T10:05:35;4.93;;;4.27;;
9481;SDS011;4779;48.062;11.672;2023-04-10T10:08:03;4.13;;;3.83;;
9481;SDS011;4779;48.062;11.672;2023-04-10T10:10:30;4.33;;;4.00;;
9481;SDS011;4779;48.062;11.672;2023-04-10T10:12:58;4.40;;;4.00;;
9481;SDS011;4779;48.062;11.672;2023-04-10T10:15:28;4.50;;;4.10;;
9481;SDS011;4779;48.062;11.672;2023-04-10T10:18:02;4.30;;;4.00;;
9481;SDS011;4779;48.062;11.672;2023-04-10T10:20:33;3.90;;;3.57;;
9481;SDS011;4779;48.062;11.672;2023-04-10T10:23:02;3.88;;;3.58;;
9481;SDS011;4779;48.062;11.672;2023-04-10T10:25:30;4.03;;;3.72;;
9481;SDS011;4779;48.062;11.672;2023-04-10T10:27:58;3.63;;;3.33;;
9481;SDS011;4779;48.062;11.672;2023-04-10T10:30:28;3.90;;;3.60;;
9481;SDS011;4779;48.062;11.672;2023-04-10T10:32:58;3.55;;;3.30;;
9481;SDS011;4779;48.062;11.672;2023-04-10T10:35:26;3.60;;;3.30;;
9481;SDS011;4779;48.062;11.672;2023-04-10T10:37:53;3.95;;;3.55;;
9481;SDS011;4779;48.062;11.672;2023-04-10T10:40:21;3.55;;;3.25;;
9481;SDS011;4779;48.062;11.672;2023-04-10T10:42:55;3.60;;;3.30;;
9481;SDS011;4779;48.062;11.672;2023-04-10T10:45:29;3.75;;;3.45;;
9481;SDS011;4779;48.062;11.672;2023-04-10T10:48:01;4.90;;;3.90;;
9481;SDS011;4779;48.062;11.672;2023-04-10T10:53:29;4.30;;;3.60;;
9481;SDS011;4779;48.062;11.672;2023-04-10T10:55:57;3.60;;;3.30;;
9481;SDS011;4779;48.062;11.672;2023-04-10T11:01:13;3.30;;;3.00;;
9481;SDS011;4779;48.062;11.672;2023-04-10T11:03:42;3.92;;;3.63;;
9481;SDS011;4779;48.062;11.672;2023-04-10T11:06:10;4.20;;;3.90;;
9481;SDS011;4779;48.062;11.672;2023-04-10T11:08:38;4.72;;;4.32;;
9481;SDS011;4779;48.062;11.672;2023-04-10T11:11:08;4.60;;;4.20;;
9481;SDS011;4779;48.062;11.672;2023-04-10T11:13:40;4.30;;;3.95;;
9481;SDS011;4779;48.062;11.672;2023-04-10T11:16:08;3.50;;;3.20;;
9481;SDS011;4779;48.062;11.672;2023-04-10T11:21:29;3.30;;;3.10;;
9481;SDS011;4779;48.062;11.672;2023-04-10T11:24:03;3.42;;;3.20;;
9481;SDS011;4779;48.062;11.672;2023-04-10T11:26:34;3.53;;;3.22;;
9481;SDS011;4779;48.062;11.672;2023-04-10T11:29:03;4.03;;;3.15;;
9481;SDS011;4779;48.062;11.672;2023-04-10T11:31:31;4.32;;;3.75;;
9481;SDS011;4779;48.062;11.672;2023-04-10T11:34:03;3.47;;;3.22;;
9481;SDS011;4779;48.062;11.672;2023-04-10T11:36:32;3.85;;;3.53;;
9481;SDS011;4779;48.062;11.672;2023-04-10T11:39:01;4.10;;;3.50;;
9481;SDS011;4779;48.062;11.672;2023-04-10T11:41:30;3.92;;;3.63;;
9481;SDS011;4779;48.062;11.672;2023-04-10T11:43:58;3.10;;;2.90;;
9481;SDS011;4779;48.062;11.672;2023-04-10T11:46:26;3.20;;;3.00;;
9481;SDS011;4779;48.062;11.672;2023-04-10T11:48:54;3.80;;;3.50;;
9481;SDS011;4779;48.062;11.672;2023-04-10T11:51:25;3.88;;;3.58;;
9481;SDS011;4779;48.062;11.672;2023-04-10T11:54:02;3.50;;;3.20;;
9481;SDS011;4779;48.062;11.672;2023-04-10T11:56:31;3.30;;;3.10;;
9481;SDS011;4779;48.062;11.672;2023-04-10T11:58:58;3.00;;;2.80;;
9481;SDS011;4779;48.062;11.672;2023-04-10T12:01:26;11.77;;;3.83;;
9481;SDS011;4779;48.062;11.672;2023-04-10T12:03:53;4.55;;;3.50;;
9481;SDS011;4779;48.062;11.672;2023-04-10T12:06:20;3.72;;;3.40;;
9481;SDS011;4779;48.062;11.672;2023-04-10T12:08:49;3.80;;;3.50;;
9481;SDS011;4779;48.062;11.672;2023-04-10T12:11:16;3.17;;;2.92;;
9481;SDS011;4779;48.062;11.672;2023-04-10T12:13:45;3.08;;;2.88;;
9481;SDS011;4779;48.062;11.672;2023-04-10T12:16:12;3.22;;;2.92;;
9481;SDS011;4779;48.062;11.672;2023-04-10T12:18:40;3.65;;;3.35;;
9481;SDS011;4779;48.062;11.672;2023-04-10T12:21:09;56.22;;;5.47;;
9481;SDS011;4779;48.062;11.672;2023-04-10T12:23:37;3.15;;;2.80;;
9481;SDS011;4779;48.062;11.672;2023-04-10T12:26:07;3.50;;;3.20;;
9481;SDS011;4779;48.062;11.672;2023-04-10T12:28:39;4.32;;;3.15;;
9481;SDS011;4779;48.062;11.672;2023-04-10T12:31:07;3.30;;;3.00;;
9481;SDS011;4779;48.062;11.672;2023-04-10T12:33:35;2.97;;;2.78;;
9481;SDS011;4779;48.062;11.672;2023-04-10T12:36:02;3.30;;;3.00;;
9481;SDS011;4779;48.062;11.672;2023-04-10T12:38:39;4.40;;;3.00;;
9481;SDS011;4779;48.062;11.672;2023-04-10T12:41:08;3.65;;;3.35;;
9481;SDS011;4779;48.062;11.672;2023-04-10T12:43:37;3.78;;;3.40;;
9481;SDS011;4779;48.062;11.672;2023-04-10T12:46:05;3.67;;;3.38;;
9481;SDS011;4779;48.062;11.672;2023-04-10T12:48:32;3.30;;;3.05;;
9481;SDS011;4779;48.062;11.672;2023-04-10T12:50:59;3.20;;;3.00;;
9481;SDS011;4779;48.062;11.672;2023-04-10T12:53:26;3.20;;;3.00;;
9481;SDS011;4779;48.062;11.672;2023-04-10T12:56:00;3.00;;;2.80;;
9481;SDS011;4779;48.062;11.672;2023-04-10T12:58:30;3.05;;;2.63;;
9481;SDS011;4779;48.062;11.672;2023-04-10T13:00:58;2.83;;;2.63;;
9481;SDS011;4779;48.062;11.672;2023-04-10T13:03:28;3.38;;;3.17;;
9481;SDS011;4779;48.062;11.672;2023-04-10T13:05:55;2.95;;;2.72;;
9481;SDS011;4779;48.062;11.672;2023-04-10T13:08:22;3.10;;;2.90;;
9481;SDS011;4779;48.062;11.672;2023-04-10T13:10:50;3.75;;;2.80;;
9481;SDS011;4779;48.062;11.672;2023-04-10T13:13:17;2.90;;;2.70;;
9481;SDS011;4779;48.062;11.672;2023-04-10T13:15:45;2.97;;;2.78;;
9481;SDS011;4779;48.062;11.672;2023-04-10T13:18:13;2.97;;;2.78;;
9481;SDS011;4779;48.062;11.672;2023-04-10T13:20:40;2.80;;;2.60;;
9481;SDS011;4779;48.062;11.672;2023-04-10T13:23:06;2.70;;;2.50;;
9481;SDS011;4779;48.062;11.672;2023-04-10T13:25:35;2.78;;;2.58;;
9481;SDS011;4779;48.062;11.672;2023-04-10T13:28:04;2.70;;;2.50;;
9481;SDS011;4779;48.062;11.672;2023-04-10T13:30:35;2.53;;;2.33;;
9481;SDS011;4779;48.062;11.672;2023-04-10T13:33:04;4.30;;;2.78;;
9481;SDS011;4779;48.062;11.672;2023-04-10T13:35:32;2.83;;;2.63;;
9481;SDS011;4779;48.062;11.672;2023-04-10T13:37:59;2.60;;;2.40;;
9481;SDS011;4779;48.062;11.672;2023-04-10T13:40:26;2.33;;;2.13;;
9481;SDS011;4779;48.062;11.672;2023-04-10T13:42:53;2.78;;;2.58;;
9481;SDS011;4779;48.062;11.672;2023-04-10T13:45:20;2.90;;;2.70;;
9481;SDS011;4779;48.062;11.672;2023-04-10T13:47:47;2.85;;;2.65;;
9481;SDS011;4779;48.062;11.672;2023-04-10T13:50:16;2.88;;;2.60;;
9481;SDS011;4779;48.062;11.672;2023-04-10T13:52:43;3.17;;;2.97;;
9481;SDS011;4779;48.062;11.672;2023-04-10T13:55:10;3.10;;;2.80;;
9481;SDS011;4779;48.062;11.672;2023-04-10T13:57:37;3.10;;;2.80;;
9481;SDS011;4779;48.062;11.672;2023-04-10T14:00:05;3.10;;;2.90;;
9481;SDS011;4779;48.062;11.672;2023-04-10T14:02:32;2.60;;;2.40;;
9481;SDS011;4779;48.062;11.672;2023-04-10T14:04:59;3.22;;;2.95;;
9481;SDS011;4779;48.062;11.672;2023-04-10T14:07:28;3.00;;;2.80;;
9481;SDS011;4779;48.062;11.672;2023-04-10T14:09:55;2.80;;;2.60;;
9481;SDS011;4779;48.062;11.672;2023-04-10T14:12:21;3.00;;;2.80;;
9481;SDS011;4779;48.062;11.672;2023-04-10T14:14:48;2.47;;;2.28;;
9481;SDS011;4779;48.062;11.672;2023-04-10T14:17:15;2.78;;;2.58;;
9481;SDS011;4779;48.062;11.672;2023-04-10T14:19:43;2.75;;;2.55;;
9481;SDS011;4779;48.062;11.672;2023-04-10T14:22:12;2.70;;;2.50;;
9481;SDS011;4779;48.062;11.672;2023-04-10T14:24:40;2.75;;;2.55;;
9481;SDS011;4779;48.062;11.672;2023-04-10T14:27:07;2.55;;;2.35;;
9481;SDS011;4779;48.062;11.672;2023-04-10T14:29:34;2.88;;;2.67;;
9481;SDS011;4779;48.062;11.672;2023-04-10T14:32:01;2.13;;;2.03;;
9481;SDS011;4779;48.062;11.672;2023-04-10T14:34:28;2.83;;;2.63;;
9481;SDS011;4779;48.062;11.672;2023-04-10T14:36:54;3.05;;;2.40;;
9481;SDS011;4779;48.062;11.672;2023-04-10T14:39:22;2.70;;;2.50;;
9481;SDS011;4779;48.062;11.672;2023-04-10T14:41:51;2.60;;;2.40;;
9481;SDS011;4779;48.062;11.672;2023-04-10T14:44:18;2.90;;;2.60;;
9481;SDS011;4779;48.062;11.672;2023-04-10T14:46:45;3.20;;;2.90;;
9481;SDS011;4779;48.062;11.672;2023-04-10T14:49:12;5.25;;;3.00;;
9481;SDS011;4779;48.062;11.672;2023-04-10T14:51:41;3.05;;;2.85;;
9481;SDS011;4779;48.062;11.672;2023-04-10T14:54:09;3.10;;;2.90;;
9481;SDS011;4779;48.062;11.672;2023-04-10T14:56:36;2.78;;;2.58;;
9481;SDS011;4779;48.062;11.672;2023-04-10T14:59:05;2.95;;;2.75;;
9481;SDS011;4779;48.062;11.672;2023-04-10T15:01:32;3.03;;;2.72;;
9481;SDS011;4779;48.062;11.672;2023-04-10T15:03:59;2.88;;;2.67;;
9481;SDS011;4779;48.062;11.672;2023-04-10T15:06:26;2.60;;;2.40;;
9481;SDS011;4779;48.062;11.672;2023-04-10T15:08:56;2.80;;;2.60;;
9481;SDS011;4779;48.062;11.672;2023-04-10T15:11:23;2.85;;;2.65;;
9481;SDS011;4779;48.062;11.672;2023-04-10T15:13:50;2.75;;;2.55;;
9481;SDS011;4779;48.062;11.672;2023-04-10T15:16:18;2.80;;;2.60;;
9481;SDS011;4779;48.062;11.672;2023-04-10T15:18:45;2.60;;;2.40;;
9481;SDS011;4779;48.062;11.672;2023-04-10T15:21:13;2.90;;;2.70;;
9481;SDS011;4779;48.062;11.672;2023-04-10T15:23:40;2.80;;;2.60;;
9481;SDS011;4779;48.062;11.672;2023-04-10T15:26:09;2.58;;;2.40;;
9481;SDS011;4779;48.062;11.672;2023-04-10T15:28:37;3.15;;;2.90;;
9481;SDS011;4779;48.062;11.672;2023-04-10T15:31:04;2.95;;;2.65;;
9481;SDS011;4779;48.062;11.672;2023-04-10T15:33:32;3.10;;;2.80;;
9481;SDS011;4779;48.062;11.672;2023-04-10T15:36:02;3.00;;;2.80;;
9481;SDS011;4779;48.062;11.672;2023-04-10T15:38:29;3.03;;;2.83;;
9481;SDS011;4779;48.062;11.672;2023-04-10T15:40:59;3.05;;;2.85;;
9481;SDS011;4779;48.062;11.672;2023-04-10T15:43:26;3.58;;;3.28;;
9481;SDS011;4779;48.062;11.672;2023-04-10T15:45:53;3.10;;;2.80;;
9481;SDS011;4779;48.062;11.672;2023-04-10T15:48:23;3.08;;;2.88;;